Time;durP1;ratioP1;P1;durP2;ratioP2;P2;SDS_P1;SDS_P2;PMS_P1;PMS_P2;Temp;Humidity;BMP_temperature;BMP_pressure;BME280_temperature;BME280_humidity;BME280_pressure;Samples;Min_cycle;Max_cycle;Signal;HPM_P1;HPM_P2
2022/07/05 00:02:54;;;;;;;2.47;2.10;;;23.70;99.90;;;;;;6087143;28;88429;-94
2022/07/05 00:06:07;;;;;;;2.30;2.10;;;23.70;99.90;;;;;;6088661;28;89437;-95
2022/07/05 00:09:12;;;;;;;2.20;2.00;;;23.70;99.90;;;;;;6090883;28;90621;-95
2022/07/05 00:12:16;;;;;;;2.28;2.08;;;23.70;99.90;;;;;;6091078;28;87182;-94
2022/07/05 00:15:18;;;;;;;1.98;1.83;;;23.70;99.90;;;;;;6088642;28;89201;-94
2022/07/05 00:18:20;;;;;;;2.17;2.00;;;23.70;99.90;;;;;;6088422;28;89257;-95
2022/07/05 00:21:23;;;;;;;1.98;1.67;;;23.70;99.90;;;;;;6089914;28;88009;-94
2022/07/05 00:25:08;;;;;;;2.10;1.85;;;23.70;99.90;;;;;;6090801;28;89523;-94
2022/07/05 00:31:31;;;;;;;1.75;1.65;;;23.70;99.90;;;;;;6118383;28;87086;-94
2022/07/05 00:34:33;;;;;;;1.70;1.58;;;23.60;99.90;;;;;;6098999;28;88053;-94
2022/07/05 00:37:46;;;;;;;1.70;1.60;;;23.60;99.90;;;;;;6100168;28;89206;-94
2022/07/05 00:40:49;;;;;;;1.63;1.45;;;23.60;99.90;;;;;;6102651;28;91546;-96
2022/07/05 02:44:27;;;;;;;1.40;1.30;;;23.70;99.90;;;;;;5931589;29;87727;-96
2022/07/05 03:17:55;;;;;;;1.48;1.20;;;23.80;99.90;;;;;;6116603;28;88858;-96
2022/07/05 03:51:07;;;;;;;1.58;1.10;;;23.70;99.90;;;;;;6094502;28;86929;-96
2022/07/05 04:04:13;;;;;;;3.25;1.17;;;23.70;99.90;;;;;;6092696;28;88895;-96
2022/07/05 04:15:02;;;;;;;1.20;1.10;;;23.70;99.90;;;;;;6092513;28;88764;-96
2022/07/05 04:21:23;;;;;;;2.40;1.20;;;23.70;99.90;;;;;;6092501;28;90045;-96
2022/07/05 04:24:27;;;;;;;1.15;1.00;;;23.70;99.90;;;;;;6092766;28;90610;-96
2022/07/05 04:46:08;;;;;;;1.52;1.30;;;23.70;99.90;;;;;;6082080;28;88339;-96
2022/07/05 04:52:56;;;;;;;1.13;0.90;;;23.70;99.90;;;;;;6095140;28;87464;-96
2022/07/05 04:55:58;;;;;;;1.30;0.90;;;23.70;99.90;;;;;;6090594;28;91289;-96
2022/07/05 05:02:36;;;;;;;5.75;1.27;;;23.70;99.90;;;;;;6081968;28;87537;-96
2022/07/05 05:05:38;;;;;;;1.63;0.90;;;23.70;99.90;;;;;;6084918;28;89199;-96
2022/07/05 05:08:41;;;;;;;3.72;1.30;;;23.70;99.90;;;;;;6076673;28;87362;-96
2022/07/05 05:11:46;;;;;;;1.63;1.20;;;23.70;99.90;;;;;;6077076;28;89495;-96
2022/07/05 05:18:05;;;;;;;1.13;1.00;;;23.70;99.90;;;;;;6078374;28;87984;-96
2022/07/05 05:24:23;;;;;;;1.73;1.08;;;23.70;99.90;;;;;;6090933;28;89275;-96
2022/07/05 05:27:26;;;;;;;1.73;1.10;;;23.70;99.90;;;;;;6083856;28;88538;-95
2022/07/05 05:30:28;;;;;;;2.83;1.13;;;23.70;99.90;;;;;;6092013;28;87144;-96
2022/07/05 05:33:34;;;;;;;1.77;1.10;;;23.70;99.90;;;;;;6075684;28;89541;-95
2022/07/05 05:36:37;;;;;;;1.50;1.10;;;23.70;99.90;;;;;;6088999;28;87123;-96
2022/07/05 05:39:39;;;;;;;1.73;1.10;;;23.70;99.90;;;;;;6069979;28;87193;-96
2022/07/05 05:42:41;;;;;;;1.50;1.08;;;23.70;99.90;;;;;;6070794;28;89771;-96
2022/07/05 05:45:43;;;;;;;1.50;1.17;;;23.70;99.90;;;;;;6087483;28;87010;-96
2022/07/05 05:48:47;;;;;;;3.10;1.40;;;23.70;99.90;;;;;;6075894;28;89777;-96
2022/07/05 05:51:49;;;;;;;1.67;1.33;;;23.70;99.90;;;;;;6077049;28;87292;-95
2022/07/05 05:54:51;;;;;;;2.08;1.50;;;23.70;99.90;;;;;;6074301;28;88310;-96
2022/07/05 05:57:53;;;;;;;2.40;1.30;;;23.70;99.90;;;;;;6075975;28;88775;-96
2022/07/05 06:00:56;;;;;;;2.15;1.30;;;23.70;99.90;;;;;;6085554;28;88629;-96
2022/07/05 06:03:59;;;;;;;1.38;1.27;;;23.60;99.90;;;;;;6080863;28;87934;-96
2022/07/05 06:07:02;;;;;;;2.55;1.30;;;23.70;99.90;;;;;;6076658;28;87839;-96
2022/07/05 06:10:05;;;;;;;2.42;1.50;;;23.70;99.90;;;;;;6073162;28;88271;-96
2022/07/05 06:26:19;;;;;;;2.30;1.30;;;23.70;99.90;;;;;;6079295;28;88755;-96
2022/07/05 06:29:22;;;;;;;1.50;1.40;;;23.70;99.90;;;;;;6087381;28;90672;-95
2022/07/05 06:32:24;;;;;;;2.38;1.60;;;23.70;99.90;;;;;;6079220;28;90081;-96
2022/07/05 06:35:29;;;;;;;1.85;1.60;;;23.70;99.90;;;;;;6090928;28;87383;-96
2022/07/05 06:38:31;;;;;;;1.70;1.60;;;23.70;99.90;;;;;;6076396;28;89133;-96
2022/07/05 06:48:23;;;;;;;1.60;1.50;;;23.70;99.90;;;;;;6086279;28;88772;-96
2022/07/05 07:02:44;;;;;;;2.33;1.83;;;23.70;99.90;;;;;;6086268;28;89977;-96
2022/07/05 07:05:46;;;;;;;2.10;1.90;;;23.70;99.90;;;;;;6077474;28;87995;-96
2022/07/05 07:22:29;;;;;;;3.30;1.52;;;23.70;99.90;;;;;;6069727;28;88697;-95
2022/07/05 07:25:33;;;;;;;1.88;1.60;;;23.70;99.90;;;;;;6060383;28;88408;-96
2022/07/05 07:28:38;;;;;;;2.00;1.80;;;23.70;99.90;;;;;;6083417;28;87619;-96
2022/07/05 07:31:40;;;;;;;2.17;1.70;;;23.70;99.90;;;;;;6065352;28;89366;-96
2022/07/05 07:34:43;;;;;;;2.97;1.70;;;23.70;99.90;;;;;;6064437;28;88963;-96
2022/07/05 07:37:46;;;;;;;2.03;1.83;;;23.70;99.90;;;;;;6082863;28;87770;-96
2022/07/05 07:47:30;;;;;;;1.70;1.60;;;23.70;99.90;;;;;;6071908;28;88682;-96
2022/07/05 07:57:38;;;;;;;2.20;1.67;;;23.70;99.90;;;;;;6081881;28;89501;-96
2022/07/05 08:03:58;;;;;;;1.70;1.60;;;23.70;99.90;;;;;;6078931;28;86838;-96
2022/07/05 08:17:22;;;;;;;2.20;2.00;;;23.70;99.90;;;;;;6071576;28;89317;-95
2022/07/05 08:27:01;;;;;;;1.98;1.70;;;23.70;99.90;;;;;;6078129;28;89717;-96
2022/07/05 08:33:21;;;;;;;3.85;1.80;;;23.70;99.90;;;;;;6079077;28;89215;-95
2022/07/05 08:42:57;;;;;;;2.47;1.60;;;23.70;99.90;;;;;;6080873;28;87263;-96
2022/07/05 08:46:01;;;;;;;1.80;1.70;;;23.80;99.90;;;;;;6081345;28;89554;-95
2022/07/05 08:49:06;;;;;;;2.05;1.80;;;23.70;99.90;;;;;;6085071;28;88590;-95
2022/07/05 08:52:19;;;;;;;2.90;2.00;;;23.80;99.90;;;;;;6084711;28;88706;-96
2022/07/05 09:05:20;;;;;;;3.35;2.20;;;23.80;99.90;;;;;;6074672;28;88847;-95
2022/07/05 09:08:23;;;;;;;3.75;2.00;;;23.80;99.90;;;;;;6079634;28;88441;-95
2022/07/05 09:11:26;;;;;;;3.50;2.25;;;23.80;99.90;;;;;;6078166;28;90223;-94
2022/07/05 09:14:28;;;;;;;2.10;1.95;;;23.80;99.90;;;;;;6076553;28;89561;-94
2022/07/05 09:17:30;;;;;;;3.15;2.08;;;23.80;99.90;;;;;;6088092;28;89317;-94
2022/07/05 09:20:34;;;;;;;3.00;2.15;;;23.80;99.90;;;;;;6069077;28;88217;-94
2022/07/05 09:23:36;;;;;;;2.25;2.10;;;23.80;99.90;;;;;;6076495;28;89452;-94
2022/07/05 09:33:21;;;;;;;2.17;2.08;;;23.80;99.90;;;;;;6080068;28;88036;-95
2022/07/05 09:40:23;;;;;;;2.22;2.10;;;23.80;99.90;;;;;;6087862;28;88730;-94
2022/07/05 09:43:30;;;;;;;3.05;2.60;;;23.80;99.90;;;;;;6065184;28;89244;-95
2022/07/05 09:46:33;;;;;;;3.05;2.85;;;23.80;99.90;;;;;;6088407;28;89617;-95
2022/07/05 09:52:57;;;;;;;2.78;2.55;;;23.80;99.90;;;;;;6100058;28;90071;-94
2022/07/05 10:03:53;;;;;;;2.60;2.40;;;23.80;99.90;;;;;;6080208;28;87796;-94
2022/07/05 10:06:55;;;;;;;2.95;2.63;;;23.80;99.90;;;;;;6081837;28;88464;-95
2022/07/05 10:09:58;;;;;;;2.92;2.63;;;23.80;99.90;;;;;;6077132;28;89274;-95
2022/07/05 10:13:01;;;;;;;2.70;2.50;;;23.80;99.90;;;;;;6092363;28;90713;-95
2022/07/05 10:16:04;;;;;;;2.97;2.50;;;23.80;99.90;;;;;;6085811;28;89897;-95
2022/07/05 10:19:16;;;;;;;2.60;2.40;;;23.80;99.90;;;;;;6079869;28;87896;-95
2022/07/05 10:22:18;;;;;;;2.83;2.40;;;23.80;99.90;;;;;;6079095;28;89559;-94
2022/07/05 10:25:24;;;;;;;2.75;2.50;;;23.80;99.90;;;;;;6063531;28;91582;-94
2022/07/05 10:28:27;;;;;;;2.65;2.45;;;23.80;99.90;;;;;;6079409;28;88011;-95
2022/07/05 10:31:30;;;;;;;2.50;2.30;;;23.80;99.90;;;;;;6077617;28;89471;-94
2022/07/05 10:37:50;;;;;;;2.60;2.10;;;23.80;99.90;;;;;;6083296;28;88323;-94
2022/07/05 10:40:56;;;;;;;2.70;2.50;;;23.80;99.90;;;;;;6074474;28;89959;-94
2022/07/05 10:43:59;;;;;;;2.40;2.20;;;23.80;99.90;;;;;;6074944;28;88410;-94
2022/07/05 10:47:12;;;;;;;2.30;2.10;;;23.80;99.90;;;;;;6080286;28;90312;-94
2022/07/05 10:50:25;;;;;;;3.80;2.20;;;23.80;99.90;;;;;;6089966;28;88197;-94
2022/07/05 10:53:31;;;;;;;2.25;2.05;;;23.80;99.90;;;;;;6073011;28;89624;-94
2022/07/05 10:56:34;;;;;;;3.33;2.00;;;23.80;99.90;;;;;;6068278;28;88943;-94
2022/07/05 11:00:08;;;;;;;2.70;2.40;;;23.80;99.90;;;;;;6083396;28;89258;-94
2022/07/05 11:03:35;;;;;;;2.30;2.10;;;23.80;99.90;;;;;;6080317;28;91090;-94
2022/07/05 11:06:44;;;;;;;2.10;1.90;;;23.80;99.90;;;;;;6087355;28;88521;-94
2022/07/05 11:10:02;;;;;;;2.15;2.00;;;23.80;99.90;;;;;;6078330;28;88360;-94
2022/07/05 11:13:43;;;;;;;2.20;2.00;;;23.80;99.90;;;;;;6085284;28;88044;-94
2022/07/05 11:16:45;;;;;;;3.00;2.22;;;23.80;99.90;;;;;;6076458;28;90658;-94
2022/07/05 11:20:09;;;;;;;2.25;2.05;;;23.80;99.90;;;;;;6071077;28;89274;-94
2022/07/05 11:30:52;;;;;;;2.63;2.22;;;23.80;99.90;;;;;;6079933;28;90409;-94
2022/07/05 11:33:58;;;;;;;2.67;2.25;;;23.70;99.90;;;;;;6081615;28;88117;-94
2022/07/05 11:37:23;;;;;;;2.10;1.90;;;23.80;99.90;;;;;;6075570;28;88484;-94
2022/07/05 11:40:30;;;;;;;2.58;2.20;;;23.80;99.90;;;;;;6073546;28;88133;-94
2022/07/05 11:43:33;;;;;;;2.03;1.88;;;23.80;99.90;;;;;;6065679;28;88396;-94
2022/07/05 11:47:06;;;;;;;2.40;2.20;;;23.80;99.90;;;;;;6080343;28;89355;-94
2022/07/05 11:53:37;;;;;;;4.72;2.20;;;23.80;99.90;;;;;;6299194;27;1452749;-65
2022/07/05 11:56:39;;;;;;;2.60;2.40;;;23.80;99.90;;;;;;6330239;27;82245;-65
2022/07/05 11:59:42;;;;;;;2.55;2.22;;;23.80;99.90;;;;;;6327393;27;82179;-65
2022/07/05 12:02:44;;;;;;;2.45;2.25;;;23.90;99.90;;;;;;6331464;27;82417;-65
2022/07/05 12:05:46;;;;;;;2.60;2.40;;;23.80;99.90;;;;;;6329595;27;81235;-65
2022/07/05 12:09:02;;;;;;;3.13;2.60;;;23.80;99.90;;;;;;6323021;27;82489;-65
2022/07/05 12:15:26;;;;;;;2.63;2.20;;;23.90;99.90;;;;;;6331332;27;82402;-65
2022/07/05 12:18:29;;;;;;;2.88;2.53;;;23.80;99.90;;;;;;6322471;27;82264;-65
2022/07/05 12:21:31;;;;;;;2.63;2.40;;;23.90;99.90;;;;;;6332069;27;82171;-68
2022/07/05 12:24:35;;;;;;;2.50;2.30;;;23.90;99.90;;;;;;6332340;27;82282;-68
2022/07/05 12:27:39;;;;;;;2.70;2.35;;;23.90;99.90;;;;;;6313560;27;81515;-68
2022/07/05 12:30:41;;;;;;;3.45;2.70;;;23.90;99.90;;;;;;6322280;27;82284;-68
2022/07/05 12:33:43;;;;;;;3.35;2.70;;;23.90;99.90;;;;;;6330365;27;82336;-68
2022/07/05 12:36:45;;;;;;;3.17;2.85;;;23.90;99.90;;;;;;6317577;27;82324;-68
2022/07/05 12:39:49;;;;;;;2.50;2.30;;;23.90;99.90;;;;;;6318741;27;81221;-68
2022/07/05 12:43:05;;;;;;;2.42;2.28;;;23.90;99.90;;;;;;6317098;27;83422;-68
2022/07/05 12:46:08;;;;;;;2.50;2.30;;;23.90;99.90;;;;;;6317768;27;80908;-68
2022/07/05 12:49:11;;;;;;;2.58;2.38;;;23.90;99.90;;;;;;6329574;27;82485;-68
2022/07/05 12:52:13;;;;;;;6.53;2.40;;;23.90;99.90;;;;;;6330061;27;82887;-68
2022/07/05 12:58:51;;;;;;;3.13;2.30;;;23.90;99.90;;;;;;6223405;28;80597;-68
2022/07/05 13:01:53;;;;;;;2.45;2.25;;;23.90;99.90;;;;;;6326567;27;82283;-68
2022/07/05 13:04:55;;;;;;;3.78;2.42;;;23.90;99.90;;;;;;6311867;27;82249;-68
2022/07/05 13:07:57;;;;;;;3.42;2.85;;;23.90;99.90;;;;;;6309114;27;82345;-68
2022/07/05 13:11:01;;;;;;;3.65;2.60;;;23.90;99.90;;;;;;6312514;27;82365;-68
2022/07/05 13:14:03;;;;;;;3.15;2.30;;;23.90;99.90;;;;;;6302143;27;82326;-67
2022/07/05 13:17:05;;;;;;;3.17;2.50;;;23.90;99.90;;;;;;6312312;27;82645;-67
2022/07/05 13:20:08;;;;;;;2.97;2.60;;;23.90;99.90;;;;;;6311730;27;81229;-69
2022/07/05 13:23:10;;;;;;;2.60;2.40;;;23.90;99.90;;;;;;6312319;27;81212;-68
2022/07/05 13:26:14;;;;;;;2.60;2.40;;;23.90;99.90;;;;;;6303621;27;81352;-68
2022/07/05 13:29:16;;;;;;;4.05;2.55;;;23.90;99.90;;;;;;6301683;27;82321;-68
2022/07/05 13:32:21;;;;;;;2.50;2.30;;;23.90;99.90;;;;;;6311317;27;82258;-68
2022/07/05 13:35:23;;;;;;;2.58;2.30;;;23.90;99.90;;;;;;6312283;27;81339;-68
2022/07/05 13:38:25;;;;;;;3.20;2.58;;;23.90;99.90;;;;;;6312222;27;81197;-68
2022/07/05 13:41:28;;;;;;;2.65;2.45;;;23.90;99.90;;;;;;6301020;27;82617;-68
2022/07/05 13:44:30;;;;;;;2.63;2.42;;;23.90;99.90;;;;;;6298223;27;82366;-68
2022/07/05 13:47:33;;;;;;;2.67;2.35;;;23.90;99.90;;;;;;6310450;27;82490;-68
2022/07/05 13:50:37;;;;;;;2.60;2.40;;;23.90;99.90;;;;;;6311987;27;82240;-68
2022/07/05 13:53:39;;;;;;;3.30;2.28;;;23.90;99.90;;;;;;6311477;27;82275;-68
2022/07/05 13:56:42;;;;;;;2.65;2.25;;;23.90;99.90;;;;;;6311591;27;82348;-68
2022/07/05 13:59:44;;;;;;;2.78;2.58;;;23.90;99.90;;;;;;6309769;27;81211;-68
2022/07/05 14:02:47;;;;;;;2.72;2.50;;;23.90;99.90;;;;;;6310440;27;82711;-67
2022/07/05 14:05:49;;;;;;;4.43;2.80;;;24.00;99.90;;;;;;6299138;27;81427;-67
2022/07/05 14:08:51;;;;;;;2.55;2.35;;;23.90;99.90;;;;;;6312113;27;81196;-68
2022/07/05 14:11:54;;;;;;;2.45;2.25;;;23.90;99.90;;;;;;6304747;27;81229;-68
2022/07/05 14:14:56;;;;;;;2.70;2.50;;;23.90;99.90;;;;;;6304681;27;82216;-68
2022/07/05 14:17:59;;;;;;;2.53;2.33;;;23.90;99.90;;;;;;6311057;27;82349;-68
2022/07/05 14:21:01;;;;;;;2.75;2.33;;;23.90;99.90;;;;;;6306396;27;81077;-68
2022/07/05 14:24:04;;;;;;;2.90;2.28;;;23.90;99.90;;;;;;6303798;27;82482;-68
2022/07/05 14:27:08;;;;;;;3.78;2.47;;;23.90;99.90;;;;;;6307897;27;82296;-68
2022/07/05 14:30:11;;;;;;;2.60;2.40;;;23.90;99.90;;;;;;6308224;27;82315;-68
2022/07/05 14:33:14;;;;;;;2.65;2.40;;;23.90;99.90;;;;;;6308837;27;81923;-68
2022/07/05 14:36:17;;;;;;;4.18;2.42;;;24.00;99.90;;;;;;6306673;27;82247;-68
2022/07/05 14:39:20;;;;;;;3.50;2.70;;;23.90;99.90;;;;;;6309545;27;82612;-68
2022/07/05 14:42:23;;;;;;;3.15;2.70;;;23.90;99.90;;;;;;6310477;27;82479;-68
2022/07/05 14:45:26;;;;;;;3.55;2.85;;;23.90;99.90;;;;;;6310946;27;82333;-68
2022/07/05 14:48:28;;;;;;;3.17;2.60;;;23.90;99.90;;;;;;6309680;27;82542;-68
2022/07/05 14:51:30;;;;;;;2.85;2.58;;;23.90;99.90;;;;;;6311011;27;83740;-68
2022/07/05 14:54:32;;;;;;;3.25;2.67;;;23.90;99.90;;;;;;6303776;27;82428;-68
2022/07/05 14:57:35;;;;;;;3.22;2.92;;;23.90;99.90;;;;;;6310717;27;82440;-68
2022/07/05 15:00:37;;;;;;;3.45;2.92;;;23.90;99.90;;;;;;6309179;27;82361;-68
2022/07/05 15:03:40;;;;;;;3.85;2.78;;;23.90;99.90;;;;;;6311225;27;81545;-68
2022/07/05 15:06:42;;;;;;;2.70;2.50;;;23.90;99.90;;;;;;6296211;27;81062;-68
2022/07/05 15:09:44;;;;;;;2.95;2.75;;;23.90;99.90;;;;;;6310204;27;82322;-68
2022/07/05 15:12:47;;;;;;;3.22;2.70;;;23.90;99.90;;;;;;6308391;27;82241;-68
2022/07/05 15:15:49;;;;;;;3.10;2.80;;;23.90;99.90;;;;;;6309886;27;82506;-68
2022/07/05 15:18:52;;;;;;;3.17;2.88;;;24.00;99.90;;;;;;6310664;27;82432;-68
2022/07/05 15:21:54;;;;;;;3.40;2.80;;;24.00;99.90;;;;;;6308238;27;82367;-68
2022/07/05 15:24:56;;;;;;;3.33;2.83;;;24.00;99.90;;;;;;6310417;27;82374;-68
2022/07/05 15:28:00;;;;;;;3.20;2.90;;;24.00;99.90;;;;;;6303288;27;82375;-68
2022/07/05 15:31:02;;;;;;;3.55;2.90;;;24.00;99.90;;;;;;6301481;27;82604;-68
2022/07/05 15:34:05;;;;;;;3.20;2.90;;;24.00;99.90;;;;;;6302743;27;82361;-68
2022/07/05 15:37:07;;;;;;;3.20;2.92;;;24.00;99.90;;;;;;6297651;27;81219;-68
2022/07/05 15:40:10;;;;;;;4.68;3.30;;;24.00;99.90;;;;;;6310572;27;82307;-68
2022/07/05 15:43:14;;;;;;;3.83;3.33;;;24.00;99.90;;;;;;6310070;27;82723;-68
2022/07/05 15:46:16;;;;;;;3.30;3.10;;;24.00;99.90;;;;;;6297507;27;82251;-68
2022/07/05 15:49:18;;;;;;;3.45;3.00;;;24.00;99.90;;;;;;6309867;27;83393;-68
2022/07/05 15:52:21;;;;;;;3.85;3.45;;;24.00;99.90;;;;;;6299439;27;81494;-68
2022/07/05 15:55:24;;;;;;;4.63;3.30;;;24.00;99.90;;;;;;6306149;27;83135;-68
2022/07/05 15:58:27;;;;;;;3.70;3.40;;;24.00;99.90;;;;;;6309585;27;82450;-68
2022/07/05 16:01:29;;;;;;;3.65;3.20;;;24.00;99.90;;;;;;6307295;27;82557;-68
2022/07/05 16:04:31;;;;;;;4.57;3.58;;;24.00;99.90;;;;;;6307031;27;82390;-68
2022/07/05 16:07:34;;;;;;;3.47;3.17;;;24.00;99.90;;;;;;6310867;27;81219;-68
2022/07/05 16:10:36;;;;;;;3.70;3.20;;;24.00;99.90;;;;;;6307538;27;82426;-68
2022/07/05 16:13:39;;;;;;;3.50;3.30;;;24.00;99.90;;;;;;6299428;27;82400;-68
2022/07/05 16:16:41;;;;;;;3.80;3.50;;;24.00;99.90;;;;;;6305099;27;82350;-68
2022/07/05 16:19:43;;;;;;;3.58;3.28;;;24.00;99.90;;;;;;6308468;27;82362;-68
2022/07/05 16:22:45;;;;;;;3.60;3.30;;;23.90;99.90;;;;;;6297120;27;82364;-68
2022/07/05 16:25:47;;;;;;;3.72;3.22;;;24.00;99.90;;;;;;6297841;27;82318;-68
2022/07/05 16:28:51;;;;;;;5.00;3.60;;;24.00;99.90;;;;;;6299918;27;82794;-68
2022/07/05 16:31:53;;;;;;;3.75;3.45;;;24.00;99.90;;;;;;6297774;27;83167;-68
2022/07/05 16:34:55;;;;;;;3.72;3.35;;;24.00;99.90;;;;;;6308990;27;81966;-68
2022/07/05 16:37:57;;;;;;;3.70;3.40;;;24.00;99.90;;;;;;6287149;27;82403;-69
2022/07/05 16:41:00;;;;;;;4.13;3.72;;;24.00;99.90;;;;;;6312228;27;81195;-68
2022/07/05 16:44:03;;;;;;;3.75;3.33;;;23.90;99.90;;;;;;6312096;27;82295;-68
2022/07/05 16:47:06;;;;;;;3.92;3.25;;;24.00;99.90;;;;;;6314200;27;82251;-68
2022/07/05 16:50:09;;;;;;;3.78;3.13;;;23.90;99.90;;;;;;6312867;27;82353;-68
2022/07/05 16:53:11;;;;;;;3.70;3.40;;;24.00;99.90;;;;;;6312350;27;82383;-68
2022/07/05 16:56:14;;;;;;;4.07;3.78;;;24.00;99.90;;;;;;6312570;27;82300;-68
2022/07/05 16:59:17;;;;;;;4.00;3.60;;;24.00;99.90;;;;;;6310588;27;84042;-68
2022/07/05 17:02:19;;;;;;;3.70;3.30;;;24.00;99.90;;;;;;6311755;27;83372;-68
2022/07/05 17:05:21;;;;;;;3.88;3.58;;;24.00;99.90;;;;;;6303207;27;84030;-68
2022/07/05 17:08:24;;;;;;;3.55;3.30;;;24.00;99.90;;;;;;6306206;27;84131;-68
2022/07/05 17:11:26;;;;;;;3.67;3.38;;;24.00;99.90;;;;;;6309728;27;84938;-68
2022/07/05 17:14:29;;;;;;;3.65;3.35;;;24.00;99.90;;;;;;6311172;27;83955;-67
2022/07/05 17:17:31;;;;;;;4.13;3.30;;;24.00;99.90;;;;;;6310380;27;84048;-68
2022/07/05 17:20:33;;;;;;;3.53;3.22;;;24.00;99.90;;;;;;6312565;27;83956;-68
2022/07/05 17:23:36;;;;;;;3.85;3.47;;;24.00;99.90;;;;;;6310634;27;82915;-68
2022/07/05 17:26:38;;;;;;;3.63;3.30;;;24.00;99.90;;;;;;6306901;27;84023;-68
2022/07/05 17:29:41;;;;;;;4.32;3.40;;;24.00;99.90;;;;;;6303912;27;83986;-68
2022/07/05 17:32:43;;;;;;;3.72;3.35;;;24.00;99.90;;;;;;6299818;27;83912;-68
2022/07/05 17:35:45;;;;;;;3.42;3.22;;;24.00;99.90;;;;;;6311263;27;84089;-68
2022/07/05 17:38:49;;;;;;;3.50;3.20;;;24.00;99.90;;;;;;6309266;27;84143;-68
2022/07/05 17:41:51;;;;;;;3.70;3.40;;;24.00;99.90;;;;;;6310968;27;84999;-68
2022/07/05 17:44:54;;;;;;;3.50;3.20;;;24.00;99.90;;;;;;6309430;27;84061;-68
2022/07/05 17:47:56;;;;;;;3.53;3.22;;;24.00;99.90;;;;;;6310735;27;84314;-68
2022/07/05 17:50:58;;;;;;;3.33;3.03;;;24.00;99.90;;;;;;6310417;27;84091;-68
2022/07/05 17:54:00;;;;;;;3.45;3.15;;;24.00;99.90;;;;;;6307733;27;84044;-68
2022/07/05 17:57:02;;;;;;;3.40;3.20;;;23.90;99.90;;;;;;6310445;27;84049;-68
2022/07/05 18:00:07;;;;;;;3.17;2.90;;;24.00;99.90;;;;;;6309690;27;84031;-68
2022/07/05 18:03:09;;;;;;;3.38;3.08;;;24.00;99.90;;;;;;6308207;27;82168;-68
2022/07/05 18:06:11;;;;;;;4.15;2.92;;;23.90;99.90;;;;;;6303632;27;84116;-69
2022/07/05 18:09:13;;;;;;;3.50;3.10;;;24.00;99.90;;;;;;6310491;27;83990;-68
2022/07/05 18:12:15;;;;;;;3.40;2.90;;;24.00;99.90;;;;;;6296847;27;84935;-68
2022/07/05 18:15:18;;;;;;;3.50;3.10;;;24.00;99.90;;;;;;6300130;27;84006;-68
2022/07/05 18:18:21;;;;;;;3.17;2.95;;;24.00;99.90;;;;;;6303272;27;83914;-68
2022/07/05 18:21:23;;;;;;;3.33;3.03;;;24.00;99.90;;;;;;6304435;27;84128;-68
2022/07/05 18:24:25;;;;;;;3.20;3.00;;;24.00;99.90;;;;;;6304494;27;85023;-68
2022/07/05 18:27:27;;;;;;;3.22;2.90;;;24.00;99.90;;;;;;6305832;27;84394;-68
2022/07/05 18:30:31;;;;;;;3.70;3.40;;;24.00;99.90;;;;;;6298037;27;84225;-68
2022/07/05 18:33:33;;;;;;;3.42;3.13;;;24.00;99.90;;;;;;6309563;27;83686;-68
2022/07/05 18:36:35;;;;;;;3.70;3.30;;;24.00;99.90;;;;;;6306480;27;82739;-68
2022/07/05 18:39:37;;;;;;;3.22;3.03;;;24.00;99.90;;;;;;6304339;27;84106;-68
2022/07/05 18:42:39;;;;;;;3.35;3.05;;;24.00;99.90;;;;;;6305993;27;84960;-67
2022/07/05 18:45:43;;;;;;;4.03;3.15;;;24.00;99.90;;;;;;6309836;27;84079;-68
2022/07/05 18:48:45;;;;;;;3.58;3.28;;;24.00;99.90;;;;;;6309211;27;82833;-68
2022/07/05 18:51:47;;;;;;;4.05;3.28;;;24.00;99.90;;;;;;6308434;27;84116;-68
2022/07/05 18:54:49;;;;;;;3.50;3.20;;;24.00;99.90;;;;;;6308547;27;82939;-68
2022/07/05 18:57:51;;;;;;;4.80;3.65;;;24.00;99.90;;;;;;6308082;27;83959;-68
2022/07/05 19:00:54;;;;;;;3.20;2.90;;;24.00;99.90;;;;;;6297917;27;84039;-68
2022/07/05 19:03:56;;;;;;;3.40;3.10;;;24.10;99.90;;;;;;6301422;27;82063;-68
2022/07/05 19:13:47;;;;;;;3.20;2.90;;;24.00;99.90;;;;;;6307849;27;83650;-68
2022/07/05 19:16:50;;;;;;;3.20;3.00;;;24.10;99.90;;;;;;6302316;27;83869;-67
2022/07/05 19:19:52;;;;;;;3.38;3.08;;;24.00;99.90;;;;;;6302923;27;83996;-68
2022/07/05 19:22:54;;;;;;;3.25;3.05;;;24.00;99.90;;;;;;6308749;27;83325;-68
2022/07/05 19:25:56;;;;;;;3.35;3.05;;;24.10;99.90;;;;;;6308469;27;83992;-68
2022/07/05 19:28:58;;;;;;;3.55;2.95;;;24.00;99.90;;;;;;6294473;27;82984;-68
2022/07/05 19:32:02;;;;;;;3.10;2.90;;;24.10;99.90;;;;;;6291269;27;84154;-68
2022/07/05 19:35:05;;;;;;;3.00;2.80;;;24.10;99.90;;;;;;6307681;27;82227;-68
2022/07/05 19:38:07;;;;;;;3.33;3.03;;;24.00;99.90;;;;;;6301092;27;84035;-67
2022/07/05 19:41:09;;;;;;;3.22;2.95;;;24.10;99.90;;;;;;6308791;27;84321;-68
2022/07/05 19:44:11;;;;;;;3.13;2.80;;;24.00;99.90;;;;;;6310121;27;84952;-68
2022/07/05 19:47:14;;;;;;;3.05;2.85;;;24.00;99.90;;;;;;6298561;27;83795;-68
2022/07/05 19:50:16;;;;;;;3.88;3.20;;;24.00;99.90;;;;;;6306223;27;82877;-68
2022/07/05 19:53:19;;;;;;;3.83;3.00;;;24.00;99.90;;;;;;6306320;27;84243;-68
2022/07/05 19:56:21;;;;;;;3.53;3.22;;;24.00;99.90;;;;;;6308687;27;83388;-68
2022/07/05 19:59:23;;;;;;;3.63;3.33;;;24.10;99.90;;;;;;6305090;27;83971;-68
2022/07/05 20:02:27;;;;;;;2.97;2.78;;;24.00;99.90;;;;;;6304990;27;82923;-68
2022/07/05 20:05:29;;;;;;;3.40;3.10;;;24.00;99.90;;;;;;6299275;27;83365;-68
2022/07/05 20:08:31;;;;;;;3.83;2.88;;;24.10;99.90;;;;;;6309375;27;82904;-68
2022/07/05 20:11:33;;;;;;;3.88;3.08;;;24.00;99.90;;;;;;6295928;27;85594;-68
2022/07/05 20:14:37;;;;;;;3.38;3.05;;;24.10;99.90;;;;;;6293747;27;85210;-68
2022/07/05 20:17:40;;;;;;;3.10;2.88;;;24.10;99.90;;;;;;6312298;27;82988;-68
2022/07/05 20:20:42;;;;;;;3.47;3.05;;;24.10;99.90;;;;;;6313345;27;84011;-65
2022/07/05 20:23:44;;;;;;;3.28;2.83;;;24.00;99.90;;;;;;6309626;27;84098;-68
2022/07/05 20:26:46;;;;;;;3.83;3.33;;;24.00;99.90;;;;;;6312099;27;82890;-68
2022/07/05 20:29:49;;;;;;;3.40;3.10;;;24.00;99.90;;;;;;6300393;27;84099;-67
2022/07/05 20:32:52;;;;;;;3.38;3.08;;;24.10;99.90;;;;;;6312161;27;84071;-67
2022/07/05 20:35:54;;;;;;;3.35;2.97;;;24.00;99.90;;;;;;6312880;27;83258;-68
2022/07/05 20:38:56;;;;;;;3.70;3.40;;;24.00;99.90;;;;;;6309549;27;83361;-68
2022/07/05 20:41:58;;;;;;;3.78;3.35;;;24.10;99.90;;;;;;6311316;27;84106;-68
2022/07/05 20:45:00;;;;;;;4.13;3.72;;;24.00;99.90;;;;;;6311231;27;85078;-68
2022/07/05 20:48:04;;;;;;;3.67;3.38;;;24.00;99.90;;;;;;6312386;27;83934;-68
2022/07/05 20:51:06;;;;;;;3.50;3.20;;;24.00;99.90;;;;;;6288612;27;84013;-68
2022/07/05 20:54:08;;;;;;;3.55;3.20;;;24.00;99.90;;;;;;6309910;27;83994;-68
2022/07/05 20:57:10;;;;;;;4.95;3.47;;;24.00;99.90;;;;;;6311999;27;84350;-68
2022/07/05 21:00:12;;;;;;;3.75;3.45;;;24.00;99.90;;;;;;6307661;27;84001;-68
2022/07/05 21:03:16;;;;;;;3.45;3.15;;;24.00;99.90;;;;;;6310447;27;84333;-68
2022/07/05 21:06:18;;;;;;;4.20;3.80;;;24.00;99.90;;;;;;6312281;27;83210;-68
2022/07/05 21:09:20;;;;;;;3.90;3.50;;;24.00;99.90;;;;;;6310833;27;84029;-68
2022/07/05 21:12:22;;;;;;;3.90;3.60;;;24.00;99.90;;;;;;6313245;27;83961;-68
2022/07/05 21:15:24;;;;;;;4.28;3.00;;;24.00;99.90;;;;;;6311649;27;85248;-68
2022/07/05 21:18:27;;;;;;;3.40;3.10;;;24.00;99.90;;;;;;6310804;27;84395;-68
2022/07/05 21:21:29;;;;;;;3.28;3.00;;;24.00;99.90;;;;;;6305330;27;84478;-68
2022/07/05 21:24:33;;;;;;;3.00;2.80;;;24.00;99.90;;;;;;6309171;27;84213;-68
2022/07/05 21:27:35;;;;;;;3.30;3.10;;;24.00;99.90;;;;;;6307094;27;82957;-68
2022/07/05 21:30:37;;;;;;;3.60;2.80;;;24.00;99.90;;;;;;6310969;27;84019;-68
2022/07/05 21:33:40;;;;;;;3.08;2.80;;;24.00;99.90;;;;;;6305631;27;83995;-68
2022/07/05 21:36:42;;;;;;;3.65;3.05;;;24.00;99.90;;;;;;6310286;27;82300;-68
2022/07/05 21:39:44;;;;;;;3.00;2.80;;;24.00;99.90;;;;;;6312167;27;84074;-68
2022/07/05 21:42:46;;;;;;;3.15;2.85;;;24.00;99.90;;;;;;6310635;27;84036;-68
2022/07/05 21:45:49;;;;;;;2.70;2.50;;;24.00;99.90;;;;;;6310959;27;84960;-68
2022/07/05 21:48:53;;;;;;;2.80;2.50;;;24.00;99.90;;;;;;6310607;27;84035;-68
2022/07/05 21:51:55;;;;;;;2.90;2.55;;;24.00;99.90;;;;;;6304346;27;82927;-68
2022/07/05 21:54:57;;;;;;;2.60;2.40;;;24.00;99.90;;;;;;6299098;27;84020;-68
2022/07/05 21:57:59;;;;;;;3.85;2.95;;;24.00;99.90;;;;;;6301071;27;84849;-68
2022/07/05 22:04:25;;;;;;;2.85;2.55;;;24.00;99.90;;;;;;6303081;27;82669;-68
2022/07/05 22:07:27;;;;;;;2.83;2.63;;;24.00;99.90;;;;;;6308807;27;82478;-68
2022/07/05 22:10:29;;;;;;;2.88;2.67;;;24.00;99.90;;;;;;6302543;27;84050;-68
2022/07/05 22:13:31;;;;;;;2.70;2.50;;;24.00;99.90;;;;;;6310887;27;84020;-68
2022/07/05 22:16:33;;;;;;;4.07;2.60;;;24.00;99.90;;;;;;6299151;27;84966;-67
2022/07/05 22:19:37;;;;;;;2.88;2.67;;;24.00;99.90;;;;;;6310738;27;84006;-68
2022/07/05 22:22:39;;;;;;;2.90;2.47;;;24.00;99.90;;;;;;6301501;27;83961;-68
2022/07/05 22:25:40;;;;;;;3.28;2.60;;;23.90;99.90;;;;;;6288909;27;84106;-68
2022/07/05 22:28:42;;;;;;;3.05;2.75;;;24.00;99.90;;;;;;6309991;27;83972;-67